createdAt,value
2018-07-03T00:01:01.249Z,21.40
2018-07-03T00:06:05.250Z,21.60
2018-07-03T00:11:09.816Z,21.50
2018-07-03T00:16:19.231Z,21.30
2018-07-03T00:26:26.861Z,20.50
2018-07-03T00:31:32.215Z,20.10
2018-07-03T00:36:36.220Z,19.80
2018-07-03T00:41:40.221Z,19.60
2018-07-03T00:46:44.246Z,19.50
2018-07-03T00:51:48.256Z,19.50
2018-07-03T00:56:52.239Z,19.30
2018-07-03T01:01:57.139Z,19.60
2018-07-03T01:07:01.139Z,19.60
2018-07-03T01:12:06.024Z,19.70
2018-07-03T01:17:10.031Z,20.00
2018-07-03T01:22:13.995Z,19.70
2018-07-03T01:27:17.994Z,19.90
2018-07-03T01:32:22.003Z,19.70
2018-07-03T01:37:26.035Z,19.70
2018-07-03T01:42:30.118Z,19.50
2018-07-03T01:47:34.123Z,19.40
2018-07-03T01:52:38.135Z,19.30
2018-07-03T01:57:42.128Z,19.10
2018-07-03T02:02:46.132Z,18.90
2018-07-03T02:17:58.167Z,19.40
2018-07-03T02:23:02.191Z,18.90
2018-07-03T02:28:06.180Z,18.40
2018-07-03T02:33:10.383Z,18.40
2018-07-03T02:38:14.382Z,18.30
2018-07-03T02:43:18.375Z,17.90
2018-07-03T02:48:22.428Z,17.70
2018-07-03T02:53:26.468Z,17.70
2018-07-03T02:58:30.476Z,17.70
2018-07-03T03:03:34.589Z,17.40
2018-07-03T03:08:38.563Z,17.30
2018-07-03T03:13:43.567Z,17.30
2018-07-03T03:18:49.632Z,17.40
2018-07-03T03:23:53.736Z,17.30
2018-07-03T03:28:57.724Z,17.30
2018-07-03T03:34:01.996Z,17.30
2018-07-03T03:39:07.068Z,17.20
2018-07-03T03:44:11.049Z,17.10
2018-07-03T03:49:15.054Z,16.90
2018-07-03T03:54:19.082Z,17.00
2018-07-03T03:59:23.099Z,17.10
2018-07-03T04:04:27.121Z,17.20
2018-07-03T04:09:31.115Z,17.30
2018-07-03T04:14:35.119Z,17.30
2018-07-03T04:19:39.137Z,17.40
2018-07-03T04:24:43.131Z,17.80
2018-07-03T04:29:47.359Z,18.20
2018-07-03T04:34:51.388Z,18.20
2018-07-03T04:39:55.440Z,18.20
2018-07-03T04:44:59.648Z,18.40
2018-07-03T04:50:03.667Z,18.80
2018-07-03T04:55:07.711Z,18.90
2018-07-03T05:00:11.711Z,19.40
2018-07-03T05:05:15.717Z,19.60
2018-07-03T05:10:19.868Z,19.60
2018-07-03T05:15:23.868Z,19.90
2018-07-03T05:20:27.875Z,19.90
2018-07-03T05:25:31.871Z,20.20
2018-07-03T05:30:35.864Z,20.80
2018-07-03T05:35:40.048Z,21.20
2018-07-03T05:40:44.069Z,21.70
2018-07-03T05:45:48.075Z,22.30
2018-07-03T05:50:52.115Z,22.50
2018-07-03T05:55:56.157Z,22.70
2018-07-03T06:01:00.191Z,23.10
2018-07-03T06:06:04.216Z,23.20
2018-07-03T06:11:08.229Z,23.50
2018-07-03T06:16:12.251Z,24.00
2018-07-03T06:21:16.235Z,24.40
2018-07-03T06:26:21.048Z,24.70
2018-07-03T06:31:25.307Z,24.90
2018-07-03T06:41:33.167Z,25.70
2018-07-03T06:46:37.167Z,26.20
2018-07-03T06:51:41.224Z,26.60
2018-07-03T06:56:45.240Z,26.60
2018-07-03T07:01:49.238Z,27.80
2018-07-03T07:06:53.243Z,28.20
2018-07-03T07:11:57.228Z,28.90
2018-07-03T07:17:01.244Z,29.20
2018-07-03T07:22:05.263Z,29.60
2018-07-03T07:27:09.273Z,30.20
2018-07-03T07:32:13.268Z,30.90
2018-07-03T07:37:17.445Z,31.20
2018-07-03T07:42:21.560Z,31.70
2018-07-03T07:47:25.578Z,31.70
2018-07-03T07:52:29.711Z,31.50
2018-07-03T07:57:33.724Z,32.60
2018-07-03T08:02:37.734Z,33.30
2018-07-03T08:07:41.836Z,33.20
2018-07-03T08:12:45.873Z,33.10
2018-07-03T08:22:53.692Z,34.90
2018-07-03T08:27:57.755Z,34.80
2018-07-03T08:33:01.780Z,35.00
2018-07-03T08:38:05.867Z,35.20
2018-07-03T08:43:09.963Z,35.40
2018-07-03T08:48:13.967Z,34.80
2018-07-03T08:53:18.809Z,35.30
2018-07-03T08:58:22.876Z,34.80
2018-07-03T09:03:27.773Z,35.00
2018-07-03T09:08:31.760Z,36.40
2018-07-03T09:13:35.765Z,35.00
2018-07-03T09:18:39.751Z,35.40
2018-07-03T09:23:43.796Z,36.90
2018-07-03T09:28:47.770Z,33.20
2018-07-03T09:33:51.776Z,34.60
2018-07-03T09:38:55.785Z,35.90
2018-07-03T09:44:00.751Z,35.60
2018-07-03T09:49:05.389Z,35.00
2018-07-03T09:54:09.402Z,36.90
2018-07-03T09:59:13.396Z,38.90
2018-07-03T10:04:17.381Z,37.50
2018-07-03T10:09:21.374Z,35.30
2018-07-03T10:14:26.136Z,32.90
2018-07-03T10:19:30.124Z,36.40
2018-07-03T10:24:34.135Z,38.40
2018-07-03T10:29:38.160Z,39.20
2018-07-03T10:34:42.151Z,38.70
2018-07-03T10:39:46.161Z,38.00
2018-07-03T10:44:50.176Z,39.10
2018-07-03T10:49:54.195Z,39.10
2018-07-03T10:54:59.187Z,39.90
2018-07-03T11:00:03.208Z,40.20
2018-07-03T11:05:07.223Z,39.70
2018-07-03T11:10:11.218Z,37.00
2018-07-03T11:15:15.208Z,39.00
2018-07-03T11:20:19.253Z,39.30
2018-07-03T11:30:26.879Z,41.70
2018-07-03T11:40:34.623Z,38.10
2018-07-03T11:45:39.120Z,40.20
2018-07-03T11:50:44.995Z,36.90
2018-07-03T11:55:48.977Z,40.40
2018-07-03T12:00:52.969Z,41.80
2018-07-03T12:05:56.992Z,42.30
2018-07-03T12:16:04.695Z,40.30
2018-07-03T12:21:08.675Z,41.90
2018-07-03T12:31:19.078Z,41.60
2018-07-03T12:46:30.407Z,41.90
2018-07-03T12:51:34.477Z,43.00
2018-07-03T12:56:38.528Z,42.20
2018-07-03T13:01:42.528Z,42.10
2018-07-03T13:06:46.561Z,42.70
2018-07-03T13:11:50.572Z,43.50
2018-07-03T13:16:54.561Z,43.00
2018-07-03T13:21:58.575Z,41.60
2018-07-03T13:27:02.810Z,41.40
2018-07-03T13:37:10.565Z,42.40
2018-07-03T13:42:15.485Z,40.50
2018-07-03T13:47:19.489Z,42.90
2018-07-03T13:52:29.111Z,44.00
2018-07-03T13:57:33.156Z,43.10
2018-07-03T14:02:37.146Z,43.60
2018-07-03T14:07:41.180Z,43.20
2018-07-03T14:12:45.188Z,42.80
2018-07-03T14:17:49.231Z,43.00
2018-07-03T14:22:53.379Z,43.10
2018-07-03T14:33:01.048Z,42.60
2018-07-03T14:39:08.008Z,43.00
2018-07-03T14:44:12.015Z,43.60
2018-07-03T14:49:15.991Z,43.30
2018-07-03T14:54:19.985Z,43.50
2018-07-03T14:59:23.995Z,43.40
2018-07-03T15:04:27.969Z,42.80
2018-07-03T15:09:31.959Z,40.80
2018-07-03T15:19:45.068Z,41.90
2018-07-03T15:24:49.072Z,39.40
2018-07-03T15:29:53.095Z,39.40
2018-07-03T15:34:57.087Z,38.00
2018-07-03T15:40:01.091Z,37.50
2018-07-03T15:45:10.032Z,39.00
2018-07-03T15:50:14.474Z,38.20
2018-07-03T15:55:18.467Z,38.60
2018-07-03T16:00:23.251Z,37.50
2018-07-03T16:05:38.484Z,38.50
2018-07-03T16:10:42.511Z,38.70
2018-07-03T16:15:46.545Z,38.70
2018-07-03T16:20:50.532Z,39.00
2018-07-03T16:25:54.537Z,39.10
2018-07-03T16:30:59.451Z,38.80
2018-07-03T16:36:03.479Z,38.20
2018-07-03T16:41:07.809Z,38.00
2018-07-03T16:46:12.903Z,38.70
2018-07-03T16:51:16.961Z,38.60
2018-07-03T16:56:21.030Z,38.30
2018-07-03T17:01:26.020Z,37.00
2018-07-03T17:06:30.042Z,36.10
2018-07-03T17:11:34.101Z,35.90
2018-07-03T17:16:38.384Z,35.50
2018-07-03T17:21:48.391Z,34.90
2018-07-03T17:26:52.428Z,34.60
2018-07-03T17:31:56.524Z,34.30
2018-07-03T17:37:00.555Z,33.80
2018-07-03T17:47:13.898Z,33.40
2018-07-03T17:52:23.824Z,33.80
2018-07-03T17:57:33.851Z,33.90
2018-07-03T18:02:37.848Z,34.00
2018-07-03T18:07:41.867Z,33.90
2018-07-03T18:12:46.742Z,33.90
2018-07-03T18:17:51.713Z,33.80
2018-07-03T18:22:55.718Z,33.50
2018-07-03T18:33:05.253Z,33.30
2018-07-03T18:38:10.077Z,33.20
2018-07-03T18:43:14.063Z,32.90
2018-07-03T18:48:18.072Z,32.60
2018-07-03T18:53:22.079Z,32.40
2018-07-03T18:58:26.287Z,32.30
2018-07-03T19:03:30.310Z,32.20
2018-07-03T19:08:34.415Z,32.00
2018-07-03T19:13:38.407Z,31.70
2018-07-03T19:18:42.404Z,31.40
2018-07-03T19:23:46.406Z,30.90
2018-07-03T19:28:51.436Z,31.00
2018-07-03T19:33:56.252Z,31.00
2018-07-03T19:39:00.274Z,30.70
2018-07-03T19:44:04.287Z,30.00
2018-07-03T19:49:08.348Z,29.70
2018-07-03T19:54:12.323Z,29.30
2018-07-03T19:59:16.355Z,29.10
2018-07-03T20:04:22.227Z,28.80
2018-07-03T20:09:26.255Z,30.10
2018-07-03T20:14:30.247Z,29.00
2018-07-03T20:19:34.263Z,28.90
2018-07-03T20:24:38.304Z,28.90
2018-07-03T20:34:47.059Z,28.80
2018-07-03T20:39:51.947Z,28.40
2018-07-03T21:00:07.852Z,27.20
2018-07-03T21:05:11.877Z,26.80
2018-07-03T21:10:15.860Z,26.70
2018-07-03T21:15:20.137Z,26.80
2018-07-03T21:20:24.147Z,27.10
2018-07-03T21:25:28.140Z,27.30
2018-07-03T21:30:32.158Z,27.00
2018-07-03T21:35:37.105Z,26.80
2018-07-03T21:40:41.116Z,26.40
2018-07-03T21:45:46.063Z,26.10
2018-07-03T21:50:50.068Z,25.90
2018-07-03T21:55:54.055Z,25.50
2018-07-03T22:00:58.044Z,25.20
2018-07-03T22:06:02.068Z,24.80
2018-07-03T22:11:20.901Z,24.90
2018-07-03T22:16:24.879Z,24.80
2018-07-03T22:21:28.881Z,24.90
2018-07-03T22:26:33.677Z,24.70
2018-07-03T22:31:37.663Z,24.60
2018-07-03T22:36:41.667Z,24.30
2018-07-03T22:41:46.628Z,23.90
2018-07-03T22:46:50.644Z,23.90
2018-07-03T22:51:54.683Z,23.90
2018-07-03T22:56:58.712Z,24.00
2018-07-03T23:02:02.696Z,23.70
2018-07-03T23:07:07.511Z,23.60
2018-07-03T23:12:15.736Z,23.50
2018-07-03T23:17:19.748Z,23.80
2018-07-03T23:22:25.687Z,23.90
2018-07-03T23:27:29.699Z,23.50
2018-07-03T23:32:33.680Z,23.10
2018-07-03T23:37:37.667Z,23.30
2018-07-03T23:42:41.657Z,23.10
2018-07-03T23:47:57.026Z,23.40
2018-07-03T23:53:12.470Z,23.60
2018-07-03T23:58:27.677Z,23.50
